Time;durP1;ratioP1;P1;durP2;ratioP2;P2;SDS_P1;SDS_P2;PMS_P1;PMS_P2;Temp;Humidity;BMP_temperature;BMP_pressure;BME280_temperature;BME280_humidity;BME280_pressure;Samples;Min_cycle;Max_cycle;Signal;HPM_P1;HPM_P2
2021/12/19 00:09:47;;;;;;;15.98;4.58;;;;;;;0.95;77.58;99754.86;1705017;84;21090;-83
2021/12/19 00:12:14;;;;;;;10.50;5.08;;;;;;;0.92;78.27;99757.79;1704549;82;21107;-82
2021/12/19 00:14:40;;;;;;;9.53;4.10;;;;;;;0.93;77.73;99750.11;1671230;84;21097;-83
2021/12/19 00:17:07;;;;;;;10.88;4.67;;;;;;;0.94;78.18;99748.02;1687969;82;21032;-84
2021/12/19 00:19:34;;;;;;;12.85;4.75;;;;;;;0.96;77.85;99758.31;1704772;82;21103;-81
2021/12/19 00:22:02;;;;;;;13.55;4.62;;;;;;;0.99;77.75;99752.85;1705664;83;21034;-82
2021/12/19 00:24:30;;;;;;;10.68;4.37;;;;;;;1.04;78.12;99759.78;1704088;84;21526;-82
2021/12/19 00:26:57;;;;;;;10.28;4.50;;;;;;;1.05;78.39;99758.94;1699667;84;21076;-81
2021/12/19 00:29:25;;;;;;;10.72;4.00;;;;;;;1.10;78.07;99760.78;1704391;84;21011;-81
2021/12/19 00:31:52;;;;;;;12.88;4.75;;;;;;;1.13;78.33;99759.98;1699063;84;21131;-82
2021/12/19 00:34:19;;;;;;;9.15;4.45;;;;;;;1.17;78.40;99762.66;1702833;84;21027;-83
2021/12/19 00:36:47;;;;;;;12.43;4.85;;;;;;;1.17;78.45;99760.11;1702809;84;20985;-83
2021/12/19 00:39:14;;;;;;;12.07;4.75;;;;;;;1.22;78.46;99759.34;1704694;83;21054;-83
2021/12/19 00:41:42;;;;;;;12.20;4.47;;;;;;;1.23;78.39;99752.95;1700911;84;21000;-82
2021/12/19 00:44:11;;;;;;;12.18;4.78;;;;;;;1.24;78.60;99754.70;1693564;83;21101;-82
2021/12/19 00:46:47;;;;;;;12.43;4.30;;;;;;;1.27;78.44;99749.63;1663697;84;20974;-82
2021/12/19 00:49:12;;;;;;;15.40;5.28;;;;;;;1.23;78.54;99749.11;1704011;84;21047;-81
2021/12/19 00:51:40;;;;;;;10.48;4.92;;;;;;;1.25;78.69;99744.89;1704519;84;21063;-79
2021/12/19 00:54:10;;;;;;;8.50;4.60;;;;;;;1.26;78.45;99749.19;1702127;84;21038;-81
2021/12/19 00:56:42;;;;;;;10.63;4.20;;;;;;;1.28;78.40;99751.38;1689948;83;21144;-84
2021/12/19 00:59:10;;;;;;;9.33;4.95;;;;;;;1.31;78.39;99745.05;1697989;83;21034;-83
2021/12/19 01:01:38;;;;;;;13.68;5.28;;;;;;;1.21;78.47;99737.97;1702366;83;21042;-81
2021/12/19 01:04:10;;;;;;;11.88;4.47;;;;;;;1.24;78.32;99741.89;1690482;84;21071;-81
2021/12/19 01:06:40;;;;;;;11.45;4.72;;;;;;;1.23;78.46;99737.58;1680870;85;21061;-79
2021/12/19 01:09:09;;;;;;;11.50;4.47;;;;;;;1.21;78.43;99739.67;1671632;85;21011;-80
2021/12/19 01:11:38;;;;;;;8.08;3.98;;;;;;;1.26;78.42;99740.23;1654261;84;21154;-82
2021/12/19 01:14:07;;;;;;;11.20;4.37;;;;;;;1.28;78.37;99737.70;1664445;85;21047;-82
2021/12/19 01:16:34;;;;;;;11.93;4.95;;;;;;;1.30;78.52;99732.20;1673122;83;21032;-81
2021/12/19 01:19:02;;;;;;;12.20;4.33;;;;;;;1.27;78.69;99734.25;1668578;83;21088;-84
2021/12/19 01:21:29;;;;;;;12.37;4.37;;;;;;;1.31;78.41;99719.83;1669020;85;20980;-83
2021/12/19 01:23:57;;;;;;;10.08;3.90;;;;;;;1.30;78.62;99720.67;1669388;85;21048;-82
2021/12/19 01:26:24;;;;;;;7.87;4.08;;;;;;;1.28;78.97;99712.09;1659127;82;21081;-83
2021/12/19 01:28:52;;;;;;;10.88;4.58;;;;;;;1.29;78.95;99708.26;1671759;83;20985;-83
2021/12/19 01:31:19;;;;;;;8.03;4.45;;;;;;;1.27;79.06;99711.63;1697286;83;21116;-83
2021/12/19 01:33:47;;;;;;;10.80;4.08;;;;;;;1.27;79.20;99711.20;1693781;83;21052;-83
2021/12/19 01:36:15;;;;;;;6.30;3.65;;;;;;;1.26;79.43;99712.47;1684616;84;21104;-83
2021/12/19 01:38:42;;;;;;;10.72;4.10;;;;;;;1.29;79.29;99708.26;1676071;84;21038;-83
2021/12/19 01:41:10;;;;;;;12.20;4.15;;;;;;;1.23;79.67;99708.12;1669462;83;21024;-82
2021/12/19 01:43:38;;;;;;;11.20;4.00;;;;;;;1.18;80.03;99700.34;1681691;81;21039;-82
2021/12/19 01:46:05;;;;;;;9.60;3.75;;;;;;;1.17;80.13;99692.23;1676226;85;21071;-82
2021/12/19 01:48:33;;;;;;;9.00;3.83;;;;;;;1.23;79.86;99673.55;1657388;84;21000;-83
2021/12/19 01:51:01;;;;;;;8.40;4.10;;;;;;;1.15;80.33;99681.09;1638281;84;21091;-83
2021/12/19 01:53:28;;;;;;;8.65;4.00;;;;;;;1.15;80.30;99681.09;1697514;83;21019;-83
2021/12/19 01:55:56;;;;;;;9.55;4.05;;;;;;;1.10;80.84;99687.80;1693076;84;21027;-81
2021/12/19 01:58:24;;;;;;;10.03;4.42;;;;;;;1.11;80.97;99694.63;1679791;81;21031;-83
2021/12/19 02:00:56;;;;;;;8.25;4.15;;;;;;;1.08;81.04;99691.16;1678692;83;21090;-83
2021/12/19 02:03:24;;;;;;;8.93;4.25;;;;;;;1.07;81.11;99689.41;1676444;85;21051;-80
2021/12/19 02:05:52;;;;;;;7.12;4.20;;;;;;;1.04;81.73;99693.20;1664151;85;21100;-80
2021/12/19 02:08:21;;;;;;;8.53;4.33;;;;;;;1.04;81.41;99684.23;1685941;82;21035;-80
2021/12/19 02:10:49;;;;;;;7.70;3.83;;;;;;;0.99;82.23;99683.72;1699617;83;21051;-83
2021/12/19 02:13:17;;;;;;;10.80;4.83;;;;;;;1.02;81.76;99679.50;1698124;83;21007;-83
2021/12/19 02:15:46;;;;;;;10.70;4.97;;;;;;;0.96;82.77;99679.80;1678463;84;21020;-82
2021/12/19 02:18:18;;;;;;;10.23;4.85;;;;;;;0.94;83.33;99680.59;1682147;83;21023;-82
2021/12/19 02:20:52;;;;;;;8.38;4.00;;;;;;;0.98;82.57;99676.00;1683023;84;21047;-82
2021/12/19 02:23:24;;;;;;;10.25;4.40;;;;;;;0.97;82.33;99677.67;1675965;85;20996;-80
2021/12/19 02:25:53;;;;;;;10.30;4.42;;;;;;;0.86;84.04;99677.86;1699747;83;21090;-82
2021/12/19 02:28:21;;;;;;;10.78;4.62;;;;;;;0.86;83.33;99677.00;1696842;83;21063;-81
2021/12/19 02:30:50;;;;;;;10.20;4.30;;;;;;;0.83;83.61;99671.80;1685909;84;21019;-84
2021/12/19 02:33:21;;;;;;;10.20;4.33;;;;;;;0.78;84.62;99666.58;1671607;85;21083;-84
2021/12/19 02:35:57;;;;;;;9.25;4.17;;;;;;;0.84;83.78;99672.27;1673186;85;21027;-80
2021/12/19 02:39:07;;;;;;;7.65;4.35;;;;;;;0.83;83.71;99671.38;1670515;85;21063;-80
2021/12/19 02:49:26;;;;;;;11.28;4.72;;;;;;;0.70;84.83;99665.11;1667934;85;21049;-80
2021/12/19 02:51:56;;;;;;;9.65;4.05;;;;;;;0.73;84.24;99662.61;1656046;87;21085;-82
2021/12/19 02:54:24;;;;;;;7.80;4.42;;;;;;;0.71;84.89;99650.62;1659304;85;20999;-82
2021/12/19 02:56:52;;;;;;;7.60;4.30;;;;;;;0.75;84.23;99649.86;1671480;85;21058;-83
2021/12/19 02:59:20;;;;;;;11.85;5.03;;;;;;;0.77;84.24;99646.92;1672889;84;21094;-83
2021/12/19 03:01:49;;;;;;;11.10;4.75;;;;;;;0.72;84.69;99633.17;1672839;82;20990;-82
2021/12/19 03:04:16;;;;;;;9.90;4.45;;;;;;;0.73;84.33;99629.77;1670174;83;21039;-82
2021/12/19 03:06:48;;;;;;;12.23;4.80;;;;;;;0.75;84.38;99622.98;1675496;84;21075;-82
2021/12/19 03:09:37;;;;;;;8.08;4.65;;;;;;;0.71;84.96;99627.16;1658866;85;21068;-82
2021/12/19 03:12:06;;;;;;;9.80;4.75;;;;;;;0.75;84.22;99627.67;1659651;83;20994;-82
2021/12/19 03:19:51;;;;;;;10.40;4.40;;;;;;;0.74;84.46;99632.79;1658612;85;21090;-80
2021/12/19 03:22:18;;;;;;;13.45;5.17;;;;;;;0.72;84.90;99622.93;1676725;85;21074;-79
2021/12/19 03:24:46;;;;;;;10.80;4.67;;;;;;;0.72;84.76;99628.05;1655770;85;21116;-80
2021/12/19 03:27:13;;;;;;;13.18;5.03;;;;;;;0.77;84.42;99625.16;1680705;85;21011;-80
2021/12/19 03:29:41;;;;;;;9.23;4.87;;;;;;;0.70;85.02;99619.47;1676099;85;21102;-80
2021/12/19 03:32:09;;;;;;;11.22;4.97;;;;;;;0.77;84.49;99623.46;1667922;85;21052;-80
2021/12/19 03:34:36;;;;;;;9.18;4.90;;;;;;;0.72;84.83;99632.75;1660810;85;21078;-80
2021/12/19 03:37:04;;;;;;;10.68;4.80;;;;;;;0.78;84.51;99630.32;1671227;85;21046;-78
2021/12/19 03:39:44;;;;;;;11.80;4.72;;;;;;;0.78;84.74;99621.78;1684873;84;21246;-80
2021/12/19 03:42:04;;;;;;;8.55;4.47;;;;;;;0.79;84.47;99620.94;1673958;85;21059;-81
2021/12/19 03:44:32;;;;;;;10.82;4.47;;;;;;;0.81;84.38;99618.42;1686779;85;21063;-80
2021/12/19 03:46:59;;;;;;;9.70;4.78;;;;;;;0.80;84.77;99611.17;1669016;85;21031;-79
2021/12/19 03:49:27;;;;;;;12.23;4.97;;;;;;;0.75;84.73;99605.92;1664749;85;21027;-80
2021/12/19 03:51:54;;;;;;;10.18;4.58;;;;;;;0.75;84.80;99609.77;1662740;85;21012;-80
2021/12/19 03:54:22;;;;;;;11.40;4.65;;;;;;;0.75;84.84;99605.06;1667461;85;21047;-79
2021/12/19 03:56:49;;;;;;;10.13;4.53;;;;;;;;;;1660874;86;21081;-80
2021/12/19 03:59:16;;;;;;;8.40;4.42;;;;;;;0.85;84.00;99605.72;1682506;85;21027;-80
2021/12/19 04:01:49;;;;;;;10.65;4.62;;;;;;;0.79;84.68;99606.86;1652699;86;21093;-80
2021/12/19 04:04:13;;;;;;;8.85;4.78;;;;;;;0.79;84.40;99603.88;1679516;85;21087;-82
2021/12/19 04:06:41;;;;;;;12.25;5.55;;;;;;;0.78;84.58;99597.47;1669144;85;21067;-83
2021/12/19 04:09:08;;;;;;;10.43;5.03;;;;;;;0.80;84.48;99602.21;1675022;85;21081;-81
2021/12/19 04:11:36;;;;;;;9.08;3.83;;;;;;;0.79;84.64;99600.47;1679900;85;21046;-81
2021/12/19 04:14:04;;;;;;;12.07;5.05;;;;;;;0.84;84.38;99590.34;1672412;85;21623;-82
2021/12/19 04:16:31;;;;;;;12.70;4.67;;;;;;;0.83;84.59;99588.61;1670771;85;21063;-82
2021/12/19 04:18:58;;;;;;;9.10;4.72;;;;;;;0.83;84.56;99597.14;1677967;85;21031;-81
2021/12/19 04:21:26;;;;;;;9.63;4.75;;;;;;;0.79;84.98;99592.78;1669432;83;20988;-83
2021/12/19 04:23:53;;;;;;;13.30;4.55;;;;;;;;;;1669409;85;21122;-82
2021/12/19 04:26:20;;;;;;;11.35;5.00;;;;;;;0.83;84.52;99588.18;1688376;84;21124;-83
2021/12/19 04:28:48;;;;;;;10.58;4.55;;;;;;;0.82;84.68;99582.63;1665609;85;21041;-83
2021/12/19 04:31:15;;;;;;;10.23;4.90;;;;;;;0.85;84.75;99592.92;1677809;83;21003;-83
2021/12/19 04:33:43;;;;;;;10.48;4.75;;;;;;;0.83;84.85;99584.34;1667670;84;21123;-83
2021/12/19 04:36:15;;;;;;;9.88;4.78;;;;;;;0.85;84.57;99576.70;1673818;83;21028;-82
2021/12/19 04:55:45;;;;;;;8.03;4.12;;;;;;;0.82;85.09;99554.47;1667774;85;21019;-80
2021/12/19 04:58:14;;;;;;;9.85;4.67;;;;;;;0.79;85.10;99541.59;1674651;85;21108;-81
2021/12/19 05:00:41;;;;;;;13.50;4.30;;;;;;;0.76;85.38;99539.84;1649786;85;21131;-83
2021/12/19 05:03:18;;;;;;;11.90;4.08;;;;;;;0.73;85.53;99537.20;1659976;85;21060;-79
2021/12/19 05:16:41;;;;;;;9.68;4.10;;;;;;;0.73;85.60;99532.09;1686208;85;21047;-80
2021/12/19 05:19:22;;;;;;;12.18;5.17;;;;;;;0.65;86.20;99525.09;1671104;84;21015;-79
2021/12/19 05:21:40;;;;;;;15.85;4.65;;;;;;;0.65;86.37;99520.83;1649512;84;21090;-83
2021/12/19 05:24:21;;;;;;;10.72;4.80;;;;;;;0.65;86.23;99518.69;1671541;83;21058;-83
2021/12/19 05:26:45;;;;;;;11.18;4.58;;;;;;;0.65;86.47;99518.69;1670606;85;21086;-79
2021/12/19 05:29:16;;;;;;;9.93;4.58;;;;;;;0.67;86.01;99521.72;1672688;85;21071;-80
2021/12/19 05:31:44;;;;;;;8.83;4.25;;;;;;;0.61;87.04;99514.34;1673235;84;21035;-79
2021/12/19 05:34:12;;;;;;;8.03;3.80;;;;;;;0.59;87.18;99513.87;1681937;84;21015;-81
2021/12/19 05:47:26;;;;;;;10.38;4.72;;;;;;;0.60;87.39;99496.85;1670876;85;21031;-80
2021/12/19 05:49:53;;;;;;;15.10;4.85;;;;;;;0.63;86.87;99501.16;1676816;85;21004;-81
2021/12/19 05:52:20;;;;;;;10.38;4.87;;;;;;;0.58;87.57;99494.67;1697121;85;21066;-79
2021/12/19 05:54:48;;;;;;;8.83;4.10;;;;;;;0.61;87.24;99502.40;1672595;85;21081;-80
2021/12/19 05:57:16;;;;;;;8.45;4.83;;;;;;;0.67;86.34;99502.53;1694746;85;20981;-80
2021/12/19 05:59:43;;;;;;;13.70;5.22;;;;;;;0.56;87.83;99506.15;1664533;85;20996;-80
2021/12/19 06:02:10;;;;;;;16.73;4.60;;;;;;;0.57;87.77;99492.52;1653525;86;21148;-80
2021/12/19 06:04:38;;;;;;;9.40;4.67;;;;;;;0.59;87.47;99490.84;1678447;85;21560;-78
2021/12/19 06:07:05;;;;;;;12.20;4.22;;;;;;;0.62;87.41;99501.98;1678796;85;21073;-79
2021/12/19 06:09:32;;;;;;;11.03;3.90;;;;;;;0.57;87.76;99489.09;1656391;85;21154;-79
2021/12/19 06:12:00;;;;;;;10.18;4.22;;;;;;;0.56;87.71;99481.84;1656290;85;21081;-78
2021/12/19 06:14:32;;;;;;;8.10;4.22;;;;;;;0.56;87.66;99483.13;1651192;85;21074;-79
2021/12/19 06:16:57;;;;;;;7.67;4.15;;;;;;;0.62;87.25;99472.55;1681041;85;21047;-80
2021/12/19 06:19:24;;;;;;;10.80;4.53;;;;;;;0.65;87.14;99471.34;1667865;85;21130;-80
2021/12/19 06:21:52;;;;;;;9.10;4.60;;;;;;;0.64;87.24;99477.28;1670313;85;21051;-80
2021/12/19 06:24:20;;;;;;;9.83;4.60;;;;;;;0.61;87.41;99466.58;1641129;87;21039;-79
2021/12/19 06:26:48;;;;;;;10.85;4.72;;;;;;;0.64;87.17;99473.45;1668251;85;21089;-80
2021/12/19 06:29:15;;;;;;;8.23;4.20;;;;;;;0.71;86.80;99471.47;1660699;86;21054;-82
2021/12/19 06:31:43;;;;;;;14.78;5.45;;;;;;;0.64;87.11;99470.49;1663853;85;21015;-83
2021/12/19 06:34:10;;;;;;;9.45;4.55;;;;;;;0.70;86.85;99470.62;1661079;86;21003;-81
2021/12/19 06:36:40;;;;;;;14.18;5.53;;;;;;;0.68;87.01;99472.70;1659230;84;20960;-82
2021/12/19 06:39:07;;;;;;;10.95;5.08;;;;;;;0.68;87.00;99463.75;1660654;83;21113;-82
2021/12/19 06:41:38;;;;;;;9.43;5.35;;;;;;;0.69;87.11;99467.59;1663450;82;20964;-82
2021/12/19 06:44:07;;;;;;;10.08;4.60;;;;;;;0.72;87.02;99470.23;1660224;84;21001;-81
2021/12/19 06:46:34;;;;;;;10.93;5.05;;;;;;;0.74;86.94;99461.31;1659360;82;21046;-83
2021/12/19 06:49:02;;;;;;;11.10;5.15;;;;;;;0.81;86.46;99475.94;1664458;83;21286;-83
2021/12/19 06:51:32;;;;;;;9.83;4.47;;;;;;;0.79;86.85;99463.53;1661844;85;21027;-82
2021/12/19 06:54:00;;;;;;;13.70;5.62;;;;;;;0.84;86.67;99467.48;1660537;84;21066;-83
2021/12/19 06:56:27;;;;;;;11.73;5.17;;;;;;;0.81;86.76;99457.17;1663086;85;21059;-82
2021/12/19 06:58:55;;;;;;;11.80;5.05;;;;;;;0.86;86.48;99450.45;1664280;85;21211;-82
2021/12/19 07:01:22;;;;;;;8.85;4.67;;;;;;;0.89;86.39;99445.38;1659893;86;21047;-83
2021/12/19 07:03:50;;;;;;;10.88;5.37;;;;;;;0.92;86.13;99439.05;1660893;83;21019;-82
2021/12/19 07:06:17;;;;;;;11.57;5.00;;;;;;;0.97;86.10;99430.60;1659932;85;21028;-82
2021/12/19 07:08:45;;;;;;;10.48;5.22;;;;;;;1.01;85.93;99426.83;1686867;85;21050;-83
2021/12/19 07:11:13;;;;;;;17.35;4.62;;;;;;;1.14;85.48;99427.52;1668799;85;21036;-81
2021/12/19 07:13:41;;;;;;;9.00;4.90;;;;;;;1.15;85.56;99421.54;1681548;85;21039;-81
2021/12/19 07:16:08;;;;;;;15.63;5.50;;;;;;;1.18;85.23;99410.09;1675258;85;21012;-79
2021/12/19 07:18:42;;;;;;;12.07;5.20;;;;;;;1.23;85.28;99404.61;1684476;85;21063;-79
2021/12/19 07:21:07;;;;;;;11.22;5.05;;;;;;;1.23;84.99;99403.75;1665525;86;21029;-80
2021/12/19 07:23:34;;;;;;;8.93;4.28;;;;;;;1.25;85.01;99393.97;1676543;85;20999;-79
2021/12/19 07:26:03;;;;;;;11.18;4.30;;;;;;;1.31;84.78;99398.34;1695984;82;21050;-79
2021/12/19 07:28:30;;;;;;;14.60;4.60;;;;;;;1.29;84.81;99386.78;1672966;83;21051;-83
2021/12/19 07:30:58;;;;;;;12.13;4.83;;;;;;;1.33;84.65;99388.98;1671708;83;21091;-81
2021/12/19 07:33:26;;;;;;;7.90;4.72;;;;;;;1.29;84.48;99376.95;1674360;84;21058;-81
2021/12/19 07:35:55;;;;;;;12.28;4.60;;;;;;;1.33;84.06;99379.62;1685195;83;21039;-82
2021/12/19 07:38:32;;;;;;;10.48;4.70;;;;;;;1.37;84.18;99372.82;1682396;82;21609;-81
2021/12/19 07:40:54;;;;;;;9.78;4.50;;;;;;;1.41;83.84;99371.17;1693358;85;21512;-79
2021/12/19 07:43:22;;;;;;;11.15;4.30;;;;;;;1.38;83.67;99375.84;1678847;85;21088;-80
2021/12/19 07:45:49;;;;;;;10.50;4.47;;;;;;;1.38;83.72;99362.61;1687176;85;21069;-80
2021/12/19 07:48:17;;;;;;;10.53;4.83;;;;;;;1.39;83.82;99360.89;1670690;86;21091;-79
2021/12/19 07:50:44;;;;;;;20.80;4.97;;;;;;;1.41;83.76;99350.68;1667333;85;21070;-79
2021/12/19 07:53:12;;;;;;;10.88;4.70;;;;;;;1.49;83.45;99342.30;1665785;85;21060;-80
2021/12/19 07:55:40;;;;;;;11.95;4.87;;;;;;;1.43;83.53;99337.47;1683669;84;21071;-80
2021/12/19 07:58:07;;;;;;;10.35;4.22;;;;;;;1.41;83.47;99341.28;1670708;86;21152;-80
2021/12/19 08:00:35;;;;;;;11.30;4.90;;;;;;;1.41;83.41;99330.19;1674890;85;21022;-80
2021/12/19 08:03:02;;;;;;;9.38;4.75;;;;;;;1.38;83.53;99326.73;1667058;85;21059;-80
2021/12/19 08:05:30;;;;;;;11.88;4.67;;;;;;;1.47;83.41;99330.28;1672104;85;21083;-79
2021/12/19 08:08:01;;;;;;;11.30;5.25;;;;;;;1.50;83.28;99319.66;1675911;85;21051;-79
2021/12/19 08:13:03;;;;;;;11.80;4.62;;;;;;;1.66;83.19;99322.03;1687154;85;21093;-82
2021/12/19 08:15:35;;;;;;;13.62;4.47;;;;;;;1.69;82.54;99314.39;1669257;85;21152;-82
2021/12/19 08:18:05;;;;;;;9.00;4.78;;;;;;;1.67;82.41;99313.91;1671509;85;21453;-82
2021/12/19 08:20:34;;;;;;;10.20;4.05;;;;;;;1.76;82.62;99304.66;1643859;85;21054;-82
2021/12/19 08:23:02;;;;;;;11.43;5.20;;;;;;;1.78;82.39;99308.09;1674365;85;21368;-81
2021/12/19 08:25:30;;;;;;;11.55;4.80;;;;;;;1.78;82.09;99306.81;1671100;86;21007;-82
2021/12/19 08:27:58;;;;;;;11.48;4.55;;;;;;;1.88;82.10;99295.41;1674265;85;21067;-82
2021/12/19 08:30:27;;;;;;;6.87;4.12;;;;;;;1.86;81.71;99300.52;1699336;81;21122;-82
2021/12/19 08:32:56;;;;;;;11.90;4.90;;;;;;;1.87;81.58;99295.84;1679069;84;21022;-82
2021/12/19 08:35:24;;;;;;;10.63;4.60;;;;;;;1.95;81.67;99289.11;1671258;86;21026;-81
2021/12/19 08:37:51;;;;;;;14.45;5.03;;;;;;;1.97;81.42;99278.88;1680133;85;21031;-83
2021/12/19 08:40:18;;;;;;;9.20;4.92;;;;;;;2.07;80.69;99272.13;1677753;84;21054;-82
2021/12/19 08:42:46;;;;;;;11.40;5.20;;;;;;;2.14;80.67;99267.09;1678954;85;21124;-81
2021/12/19 08:45:15;;;;;;;9.18;4.80;;;;;;;2.19;80.16;99282.13;1681614;85;21026;-82
2021/12/19 08:47:43;;;;;;;14.68;5.10;;;;;;;2.30;79.98;99263.42;1673592;85;21051;-82
2021/12/19 08:50:12;;;;;;;10.43;5.40;;;;;;;2.48;79.23;99267.89;1684224;85;21110;-81
2021/12/19 08:52:40;;;;;;;8.60;4.50;;;;;;;2.65;79.02;99262.94;1693995;85;21020;-81
2021/12/19 08:55:10;;;;;;;9.23;4.37;;;;;;;2.84;77.89;99254.53;1683945;82;21055;-82
2021/12/19 08:57:38;;;;;;;10.08;4.10;;;;;;;3.14;78.10;99242.77;1667247;85;21024;-82
2021/12/19 09:00:13;;;;;;;9.50;4.55;;;;;;;3.31;77.23;99246.77;1671543;83;21031;-83
2021/12/19 09:02:44;;;;;;;10.90;5.17;;;;;;;3.32;75.94;99253.20;1671441;84;21030;-81
2021/12/19 09:05:12;;;;;;;11.85;4.33;;;;;;;3.43;75.14;99249.41;1691532;84;21067;-82
2021/12/19 09:07:40;;;;;;;7.92;4.03;;;;;;;3.45;75.49;99246.85;1677176;84;21060;-82
2021/12/19 09:10:09;;;;;;;6.92;3.92;;;;;;;3.43;74.25;99245.55;1682829;84;21070;-82
2021/12/19 09:12:37;;;;;;;7.70;3.92;;;;;;;3.42;73.56;99245.53;1681256;84;21054;-83
2021/12/19 09:15:06;;;;;;;9.53;3.83;;;;;;;3.42;74.63;99238.67;1693344;84;21042;-82
2021/12/19 09:17:33;;;;;;;6.87;4.03;;;;;;;3.36;74.23;99231.81;1681143;84;21077;-82
2021/12/19 09:20:01;;;;;;;8.25;3.75;;;;;;;3.42;74.01;99219.83;1654261;85;20969;-81
2021/12/19 09:22:29;;;;;;;8.85;3.75;;;;;;;3.48;74.42;99216.89;1678754;84;21088;-81
2021/12/19 09:24:57;;;;;;;15.25;4.90;;;;;;;3.52;74.09;99210.03;1706623;83;21035;-82
2021/12/19 09:27:24;;;;;;;10.32;4.58;;;;;;;3.55;74.66;99216.05;1691249;84;21085;-82
2021/12/19 09:29:53;;;;;;;9.60;4.25;;;;;;;3.56;74.79;99214.33;1685346;84;21091;-82
2021/12/19 09:32:20;;;;;;;13.55;4.60;;;;;;;3.54;73.93;99207.04;1665413;84;21232;-81
2021/12/19 09:34:48;;;;;;;14.18;4.37;;;;;;;3.57;74.02;99202.78;1684894;84;21075;-82
2021/12/19 09:37:16;;;;;;;7.87;3.90;;;;;;;3.51;73.16;99188.61;1690837;83;21012;-81
2021/12/19 09:39:43;;;;;;;8.75;3.67;;;;;;;3.64;73.81;99193.41;1678400;85;21046;-81
2021/12/19 09:42:11;;;;;;;17.35;4.83;;;;;;;3.66;73.98;99174.98;1685140;84;21088;-82
2021/12/19 09:44:40;;;;;;;10.58;4.25;;;;;;;3.57;73.12;99177.50;1678129;85;21093;-82
2021/12/19 09:47:08;;;;;;;13.43;5.03;;;;;;;3.49;72.77;99172.33;1689300;84;20968;-82
2021/12/19 09:49:37;;;;;;;11.65;4.70;;;;;;;3.49;73.25;99163.77;1681387;84;21012;-82
2021/12/19 09:52:08;;;;;;;9.78;4.37;;;;;;;3.52;73.14;99155.64;1686354;84;21042;-82
2021/12/19 09:54:44;;;;;;;13.00;4.60;;;;;;;3.60;73.89;99141.51;1677044;84;21021;-81
2021/12/19 09:57:08;;;;;;;10.85;4.67;;;;;;;3.56;72.60;99133.35;1661291;84;21006;-81
2021/12/19 09:59:35;;;;;;;7.97;4.35;;;;;;;3.59;72.43;99128.23;1698357;84;21139;-82
2021/12/19 10:02:03;;;;;;;6.50;4.08;;;;;;;3.61;72.81;99123.96;1697451;83;21069;-82
2021/12/19 10:04:41;;;;;;;15.13;4.33;;;;;;;3.70;72.72;99121.43;1683947;83;21090;-82
2021/12/19 10:07:17;;;;;;;12.75;4.55;;;;;;;3.73;71.25;99126.56;1685802;84;21058;-81
2021/12/19 10:10:12;;;;;;;10.10;3.98;;;;;;;3.83;71.56;99113.74;1669045;85;21078;-82
2021/12/19 10:12:48;;;;;;;9.45;3.67;;;;;;;3.96;72.16;99123.21;1683473;85;21012;-81
2021/12/19 10:15:22;;;;;;;8.35;4.28;;;;;;;3.94;68.78;99100.05;1667513;86;21032;-82
2021/12/19 10:18:15;;;;;;;9.53;4.25;;;;;;;3.94;68.78;99100.05;1671024;85;21050;-81
2021/12/19 10:20:56;;;;;;;10.23;3.90;;;;;;;4.13;69.29;99087.20;1665798;85;21027;-82
2021/12/19 10:23:32;;;;;;;12.80;4.12;;;;;;;4.17;68.88;99075.61;1672018;85;21067;-83
2021/12/19 10:26:06;;;;;;;15.80;5.05;;;;;;;4.23;69.94;99052.04;1659790;85;21060;-80
2021/12/19 10:28:54;;;;;;;9.45;4.97;;;;;;;4.12;69.59;99043.90;1659161;85;21067;-82
2021/12/19 10:31:32;;;;;;;11.50;4.60;;;;;;;4.24;70.24;99052.05;1666224;85;21043;-81
2021/12/19 10:34:21;;;;;;;12.23;4.20;;;;;;;4.41;71.11;99045.59;1674485;85;21003;-82
2021/12/19 10:36:50;;;;;;;8.88;4.20;;;;;;;4.47;69.69;99040.42;1668464;86;21043;-81
2021/12/19 10:39:19;;;;;;;6.80;3.67;;;;;;;4.49;69.10;99023.26;1670527;85;21486;-81
2021/12/19 10:41:59;;;;;;;13.60;4.05;;;;;;;4.63;68.49;99023.67;1674717;85;21083;-82
2021/12/19 10:47:27;;;;;;;9.95;4.65;;;;;;;4.85;67.54;99008.58;1660036;85;21072;-82
2021/12/19 10:49:55;;;;;;;11.25;4.10;;;;;;;4.90;66.03;99015.87;1679408;85;21000;-82
2021/12/19 10:52:39;;;;;;;10.10;4.08;;;;;;;5.06;67.31;99004.23;1687182;85;21037;-81
2021/12/19 10:55:12;;;;;;;7.97;3.83;;;;;;;5.11;62.71;99010.20;1673280;85;21019;-81
2021/12/19 10:57:42;;;;;;;8.00;3.73;;;;;;;5.19;63.95;98985.24;1688763;85;21011;-82
2021/12/19 11:00:15;;;;;;;8.98;3.95;;;;;;;5.18;64.89;98974.08;1683651;85;21060;-82
2021/12/19 11:02:44;;;;;;;9.28;4.00;;;;;;;5.24;65.40;98967.20;1653026;85;21554;-81
2021/12/19 11:05:35;;;;;;;7.50;3.25;;;;;;;5.23;64.71;98962.89;1667352;85;21071;-82
2021/12/19 11:08:08;;;;;;;10.45;3.83;;;;;;;5.16;62.38;98952.62;1676603;85;21054;-82
2021/12/19 11:10:38;;;;;;;11.40;4.33;;;;;;;5.09;63.42;98935.91;1669612;85;21527;-81
2021/12/19 11:13:12;;;;;;;11.05;4.20;;;;;;;5.14;62.71;98929.02;1675717;85;21079;-81
2021/12/19 11:15:41;;;;;;;9.48;4.37;;;;;;;5.12;63.08;98929.46;1670117;85;21042;-81
2021/12/19 11:18:09;;;;;;;11.68;4.90;;;;;;;5.20;63.08;98931.55;1665406;86;21053;-81
2021/12/19 11:20:37;;;;;;;12.13;5.80;;;;;;;5.22;64.03;98937.55;1678687;84;21055;-81
2021/12/19 11:23:04;;;;;;;14.60;5.65;;;;;;;5.23;63.70;98926.36;1687178;85;21032;-82
2021/12/19 11:25:32;;;;;;;9.78;4.35;;;;;;;5.24;63.78;98926.80;1669858;85;21040;-82
2021/12/19 11:28:01;;;;;;;16.32;5.00;;;;;;;5.26;64.66;98920.36;1670624;85;21023;-82
2021/12/19 11:30:30;;;;;;;11.97;4.95;;;;;;;5.27;64.41;98926.80;1649881;85;21017;-82
2021/12/19 11:33:25;;;;;;;16.62;6.40;;;;;;;5.27;64.28;98916.49;1684415;85;21050;-82
2021/12/19 11:35:55;;;;;;;13.15;6.08;;;;;;;5.32;65.80;98905.70;1669289;85;21190;-85
2021/12/19 11:38:23;;;;;;;10.58;4.72;;;;;;;5.27;65.86;98894.58;1668132;85;21043;-83
2021/12/19 11:40:52;;;;;;;13.13;5.00;;;;;;;5.20;64.86;98904.50;1669144;85;21036;-82
2021/12/19 11:43:19;;;;;;;13.78;4.83;;;;;;;5.33;65.69;98907.42;1672151;85;21088;-82
2021/12/19 11:45:59;;;;;;;12.45;4.37;;;;;;;5.40;64.15;98901.78;1663773;83;21055;-82
2021/12/19 11:48:30;;;;;;;8.70;4.00;;;;;;;5.53;62.64;98907.69;1657565;85;21043;-82
2021/12/19 11:51:01;;;;;;;14.15;4.50;;;;;;;5.68;62.56;98893.39;1672028;85;21008;-81
2021/12/19 11:53:41;;;;;;;6.97;3.72;;;;;;;5.78;62.04;98887.27;1685558;85;21084;-83
2021/12/19 11:56:16;;;;;;;10.58;4.00;;;;;;;5.70;59.38;98887.78;1670330;85;21067;-82
2021/12/19 11:58:52;;;;;;;12.35;4.35;;;;;;;5.83;61.00;98883.79;1683433;85;20968;-83
2021/12/19 12:01:27;;;;;;;14.28;4.05;;;;;;;5.86;57.97;98878.62;1617741;86;21013;-82
2021/12/19 12:04:03;;;;;;;10.72;4.15;;;;;;;6.05;59.26;98873.73;1672751;85;21055;-80
2021/12/19 12:06:40;;;;;;;9.40;4.30;;;;;;;5.88;57.97;98869.14;1668402;85;21042;-80
2021/12/19 12:09:16;;;;;;;11.65;5.58;;;;;;;5.87;58.76;98879.02;1694097;84;21012;-82
2021/12/19 12:12:11;;;;;;;14.35;4.55;;;;;;;5.71;59.46;98866.29;1661743;86;21076;-81
2021/12/19 12:14:53;;;;;;;8.68;4.85;;;;;;;5.72;59.93;98849.08;1675059;85;21063;-81
2021/12/19 12:17:30;;;;;;;12.80;4.05;;;;;;;5.57;60.01;98853.92;1683262;84;21018;-81
2021/12/19 12:20:00;;;;;;;9.93;4.72;;;;;;;5.44;60.49;98844.16;1675483;85;21092;-81
2021/12/19 12:22:35;;;;;;;15.60;4.78;;;;;;;5.38;61.39;98842.48;1671157;85;21043;-81
2021/12/19 12:25:30;;;;;;;10.82;5.45;;;;;;;5.29;60.85;98849.44;1671386;85;21036;-82
2021/12/19 12:28:05;;;;;;;9.73;4.70;;;;;;;5.11;61.74;98829.81;1674010;85;21036;-83
2021/12/19 12:30:41;;;;;;;8.35;3.70;;;;;;;5.19;62.22;98820.30;1688419;85;21063;-82
2021/12/19 12:33:14;;;;;;;10.35;4.67;;;;;;;5.26;62.33;98814.68;1685295;85;21301;-82
2021/12/19 12:35:45;;;;;;;8.55;4.37;;;;;;;5.30;62.34;98812.05;1687604;85;21070;-81
2021/12/19 12:38:14;;;;;;;10.45;4.65;;;;;;;5.32;62.66;98805.61;1684528;84;21032;-81
2021/12/19 12:40:57;;;;;;;10.32;5.30;;;;;;;5.24;63.11;98806.95;1685659;85;21299;-81
2021/12/19 12:43:36;;;;;;;12.10;5.12;;;;;;;5.19;63.37;98803.55;1670915;84;21087;-82
2021/12/19 12:46:23;;;;;;;10.63;4.85;;;;;;;5.04;63.64;98792.09;1677253;85;21082;-81
2021/12/19 12:49:07;;;;;;;12.25;5.30;;;;;;;4.96;64.32;98793.44;1678887;85;21011;-82
2021/12/19 12:51:41;;;;;;;11.83;5.45;;;;;;;5.06;64.65;98805.37;1678904;85;21563;-82
2021/12/19 12:54:24;;;;;;;11.73;5.05;;;;;;;4.93;65.44;98810.19;1670359;86;21022;-82
2021/12/19 12:56:55;;;;;;;18.23;6.20;;;;;;;4.88;65.40;98787.05;1646796;85;21023;-82